sensor_id;sensor_type;location;lat;lon;timestamp;pressure;altitude;pressure_sealevel;temperature;humidity
4617;BME280;2321;42.704;23.384;2023-03-14T00:01:44;95694.97;;;4.06;61.63
4617;BME280;2321;42.704;23.384;2023-03-14T00:04:11;95700.81;;;4.00;62.33
4617;BME280;2321;42.704;23.384;2023-03-14T00:06:38;95695.13;;;4.05;62.36
4617;BME280;2321;42.704;23.384;2023-03-14T00:09:07;95703.59;;;3.98;63.63
4617;BME280;2321;42.704;23.384;2023-03-14T00:11:38;95679.16;;;3.96;63.46
4617;BME280;2321;42.704;23.384;2023-03-14T00:14:06;95678.34;;;3.96;64.23
4617;BME280;2321;42.704;23.384;2023-03-14T00:16:33;95673.78;;;3.98;64.43
4617;BME280;2321;42.704;23.384;2023-03-14T00:19:00;95671.84;;;3.90;65.38
4617;BME280;2321;42.704;23.384;2023-03-14T00:21:27;95669.50;;;3.87;65.26
4617;BME280;2321;42.704;23.384;2023-03-14T00:23:54;95664.78;;;3.80;64.87
4617;BME280;2321;42.704;23.384;2023-03-14T00:26:23;95657.50;;;3.64;66.05
4617;BME280;2321;42.704;23.384;2023-03-14T00:28:51;95654.44;;;3.69;65.76
4617;BME280;2321;42.704;23.384;2023-03-14T00:31:18;95659.56;;;3.70;65.87
4617;BME280;2321;42.704;23.384;2023-03-14T00:33:45;95649.56;;;3.74;66.05
4617;BME280;2321;42.704;23.384;2023-03-14T00:36:14;95641.25;;;3.79;65.75
4617;BME280;2321;42.704;23.384;2023-03-14T00:38:42;95641.78;;;3.83;65.10
4617;BME280;2321;42.704;23.384;2023-03-14T00:41:12;95649.81;;;3.81;65.58
4617;BME280;2321;42.704;23.384;2023-03-14T00:43:41;95638.06;;;3.75;66.17
4617;BME280;2321;42.704;23.384;2023-03-14T00:46:08;95626.56;;;3.76;67.07
4617;BME280;2321;42.704;23.384;2023-03-14T00:48:35;95633.75;;;3.74;67.00
4617;BME280;2321;42.704;23.384;2023-03-14T00:51:03;95639.84;;;3.75;66.44
4617;BME280;2321;42.704;23.384;2023-03-14T00:53:30;95639.91;;;3.65;66.39
4617;BME280;2321;42.704;23.384;2023-03-14T00:56:01;95635.44;;;3.65;67.51
4617;BME280;2321;42.704;23.384;2023-03-14T00:58:28;95627.41;;;3.67;67.56
4617;BME280;2321;42.704;23.384;2023-03-14T01:00:57;95636.69;;;3.71;68.07
4617;BME280;2321;42.704;23.384;2023-03-14T01:03:24;95629.59;;;3.72;68.08
4617;BME280;2321;42.704;23.384;2023-03-14T01:05:51;95629.31;;;3.75;67.51
4617;BME280;2321;42.704;23.384;2023-03-14T01:08:18;95625.19;;;3.72;68.07
4617;BME280;2321;42.704;23.384;2023-03-14T01:10:45;95615.75;;;3.69;68.83
4617;BME280;2321;42.704;23.384;2023-03-14T01:13:12;95623.00;;;3.67;70.03
4617;BME280;2321;42.704;23.384;2023-03-14T01:15:38;95624.63;;;3.68;68.58
4617;BME280;2321;42.704;23.384;2023-03-14T01:18:07;95617.72;;;3.67;66.93
4617;BME280;2321;42.704;23.384;2023-03-14T01:20:34;95607.88;;;3.59;68.67
4617;BME280;2321;42.704;23.384;2023-03-14T01:23:00;95600.16;;;3.58;69.15
4617;BME280;2321;42.704;23.384;2023-03-14T01:25:27;95596.13;;;3.54;69.80
4617;BME280;2321;42.704;23.384;2023-03-14T01:27:55;95591.97;;;3.51;70.82
4617;BME280;2321;42.704;23.384;2023-03-14T01:30:22;95595.34;;;3.43;71.39
4617;BME280;2321;42.704;23.384;2023-03-14T01:32:49;95598.53;;;3.27;71.95
4617;BME280;2321;42.704;23.384;2023-03-14T01:35:17;95592.47;;;3.16;75.37
4617;BME280;2321;42.704;23.384;2023-03-14T01:37:44;95592.06;;;3.21;73.36
4617;BME280;2321;42.704;23.384;2023-03-14T01:40:11;95592.63;;;3.15;73.65
4617;BME280;2321;42.704;23.384;2023-03-14T01:42:45;95588.19;;;2.96;75.14
4617;BME280;2321;42.704;23.384;2023-03-14T01:48:18;95582.66;;;2.99;75.93
4617;BME280;2321;42.704;23.384;2023-03-14T01:50:47;95581.13;;;2.96;76.95
4617;BME280;2321;42.704;23.384;2023-03-14T01:53:14;95582.09;;;2.95;77.24
4617;BME280;2321;42.704;23.384;2023-03-14T01:55:42;95574.34;;;2.93;77.94
4617;BME280;2321;42.704;23.384;2023-03-14T01:58:09;95567.16;;;2.86;77.56
4617;BME280;2321;42.704;23.384;2023-03-14T02:00:36;95575.31;;;2.92;78.74
4617;BME280;2321;42.704;23.384;2023-03-14T02:03:08;95574.09;;;2.97;78.87
4617;BME280;2321;42.704;23.384;2023-03-14T02:05:39;95572.00;;;2.90;79.19
4617;BME280;2321;42.704;23.384;2023-03-14T02:08:11;95578.50;;;2.86;80.93
4617;BME280;2321;42.704;23.384;2023-03-14T02:10:41;95572.16;;;2.79;80.84
4617;BME280;2321;42.704;23.384;2023-03-14T02:13:10;95567.97;;;2.76;82.92
4617;BME280;2321;42.704;23.384;2023-03-14T02:15:38;95568.25;;;2.73;83.69
4617;BME280;2321;42.704;23.384;2023-03-14T02:18:05;95564.94;;;2.71;83.79
4617;BME280;2321;42.704;23.384;2023-03-14T02:20:36;95564.13;;;2.70;84.35
4617;BME280;2321;42.704;23.384;2023-03-14T02:23:07;95568.00;;;2.66;83.07
4617;BME280;2321;42.704;23.384;2023-03-14T02:25:39;95566.59;;;2.62;86.72
4617;BME280;2321;42.704;23.384;2023-03-14T02:28:11;95567.16;;;2.66;85.34
4617;BME280;2321;42.704;23.384;2023-03-14T02:30:38;95570.47;;;2.68;82.77
4617;BME280;2321;42.704;23.384;2023-03-14T02:33:07;95565.66;;;2.63;80.80
4617;BME280;2321;42.704;23.384;2023-03-14T02:35:37;95558.88;;;2.60;82.52
4617;BME280;2321;42.704;23.384;2023-03-14T02:38:11;95555.25;;;2.52;83.85
4617;BME280;2321;42.704;23.384;2023-03-14T02:40:41;95562.19;;;2.63;83.24
4617;BME280;2321;42.704;23.384;2023-03-14T02:43:09;95572.00;;;2.70;82.62
4617;BME280;2321;42.704;23.384;2023-03-14T02:45:40;95567.19;;;2.76;80.67
4617;BME280;2321;42.704;23.384;2023-03-14T02:48:11;95571.47;;;2.67;83.10
4617;BME280;2321;42.704;23.384;2023-03-14T02:50:39;95581.81;;;2.38;85.58
4617;BME280;2321;42.704;23.384;2023-03-14T02:53:06;95575.97;;;2.25;88.41
4617;BME280;2321;42.704;23.384;2023-03-14T02:55:33;95579.03;;;2.20;89.91
4617;BME280;2321;42.704;23.384;2023-03-14T02:58:00;95585.09;;;2.21;91.12
4617;BME280;2321;42.704;23.384;2023-03-14T03:00:28;95587.00;;;2.09;91.66
4617;BME280;2321;42.704;23.384;2023-03-14T03:02:56;95589.59;;;1.99;93.45
4617;BME280;2321;42.704;23.384;2023-03-14T03:05:23;95580.22;;;1.96;94.23
4617;BME280;2321;42.704;23.384;2023-03-14T03:07:49;95580.47;;;1.93;94.83
4617;BME280;2321;42.704;23.384;2023-03-14T03:10:17;95579.22;;;1.97;94.97
4617;BME280;2321;42.704;23.384;2023-03-14T03:12:44;95579.75;;;1.91;96.27
4617;BME280;2321;42.704;23.384;2023-03-14T03:15:11;95555.94;;;1.72;96.29
4617;BME280;2321;42.704;23.384;2023-03-14T03:17:39;95579.63;;;1.92;96.66
4617;BME280;2321;42.704;23.384;2023-03-14T03:20:07;95577.81;;;1.83;97.24
4617;BME280;2321;42.704;23.384;2023-03-14T03:22:35;95575.72;;;1.77;98.95
4617;BME280;2321;42.704;23.384;2023-03-14T03:25:02;95581.06;;;1.75;99.39
4617;BME280;2321;42.704;23.384;2023-03-14T03:27:30;95578.19;;;1.68;100.00
4617;BME280;2321;42.704;23.384;2023-03-14T03:29:57;95578.88;;;1.70;100.00
4617;BME280;2321;42.704;23.384;2023-03-14T03:32:24;95576.66;;;1.76;100.00
4617;BME280;2321;42.704;23.384;2023-03-14T03:34:53;95576.56;;;1.87;100.00
4617;BME280;2321;42.704;23.384;2023-03-14T03:37:20;95572.88;;;1.90;100.00
4617;BME280;2321;42.704;23.384;2023-03-14T03:39:46;95575.75;;;1.87;99.51
4617;BME280;2321;42.704;23.384;2023-03-14T03:42:13;95574.88;;;1.76;100.00
4617;BME280;2321;42.704;23.384;2023-03-14T03:44:40;95572.66;;;1.71;100.00
4617;BME280;2321;42.704;23.384;2023-03-14T03:47:07;95568.72;;;1.97;99.31
4617;BME280;2321;42.704;23.384;2023-03-14T03:49:34;95577.97;;;1.91;98.75
4617;BME280;2321;42.704;23.384;2023-03-14T03:52:02;95580.06;;;1.98;97.53
4617;BME280;2321;42.704;23.384;2023-03-14T03:54:29;95583.00;;;2.04;96.46
4617;BME280;2321;42.704;23.384;2023-03-14T03:56:56;95591.97;;;2.02;95.40
4617;BME280;2321;42.704;23.384;2023-03-14T03:59:23;95584.31;;;1.89;96.72
4617;BME280;2321;42.704;23.384;2023-03-14T04:01:50;95589.09;;;1.73;97.26
4617;BME280;2321;42.704;23.384;2023-03-14T04:04:17;95589.63;;;1.67;99.16
4617;BME280;2321;42.704;23.384;2023-03-14T04:06:44;95591.41;;;1.67;99.69
4617;BME280;2321;42.704;23.384;2023-03-14T04:09:12;95576.25;;;1.70;99.45
4617;BME280;2321;42.704;23.384;2023-03-14T04:11:39;95584.81;;;1.72;99.89
4617;BME280;2321;42.704;23.384;2023-03-14T04:14:06;95584.81;;;1.72;100.00
4617;BME280;2321;42.704;23.384;2023-03-14T04:16:33;95587.13;;;1.66;100.00
4617;BME280;2321;42.704;23.384;2023-03-14T04:19:01;95573.44;;;1.62;100.00
4617;BME280;2321;42.704;23.384;2023-03-14T04:21:28;95576.50;;;1.67;100.00
4617;BME280;2321;42.704;23.384;2023-03-14T04:23:55;95570.56;;;1.75;100.00
4617;BME280;2321;42.704;23.384;2023-03-14T04:26:23;95560.66;;;1.79;100.00
4617;BME280;2321;42.704;23.384;2023-03-14T04:28:50;95557.19;;;1.78;100.00
4617;BME280;2321;42.704;23.384;2023-03-14T04:31:18;95554.41;;;1.70;100.00
4617;BME280;2321;42.704;23.384;2023-03-14T04:33:46;95558.13;;;1.67;100.00
4617;BME280;2321;42.704;23.384;2023-03-14T04:36:14;95552.09;;;1.77;100.00
4617;BME280;2321;42.704;23.384;2023-03-14T04:38:41;95553.50;;;1.81;99.64
4617;BME280;2321;42.704;23.384;2023-03-14T04:41:08;95555.13;;;1.82;99.14
4617;BME280;2321;42.704;23.384;2023-03-14T04:43:36;95547.97;;;1.84;98.49
4617;BME280;2321;42.704;23.384;2023-03-14T04:46:03;95542.69;;;1.74;100.00
4617;BME280;2321;42.704;23.384;2023-03-14T04:48:30;95548.00;;;1.52;100.00
4617;BME280;2321;42.704;23.384;2023-03-14T04:50:57;95549.25;;;1.58;100.00
4617;BME280;2321;42.704;23.384;2023-03-14T04:53:24;95536.91;;;1.49;100.00
4617;BME280;2321;42.704;23.384;2023-03-14T04:55:52;95533.59;;;1.47;100.00
4617;BME280;2321;42.704;23.384;2023-03-14T04:58:20;95537.50;;;1.52;100.00
4617;BME280;2321;42.704;23.384;2023-03-14T05:00:49;95529.66;;;1.62;100.00
4617;BME280;2321;42.704;23.384;2023-03-14T05:03:16;95535.19;;;1.69;100.00
4617;BME280;2321;42.704;23.384;2023-03-14T05:05:43;95541.50;;;1.57;100.00
4617;BME280;2321;42.704;23.384;2023-03-14T05:08:11;95533.78;;;1.55;100.00
4617;BME280;2321;42.704;23.384;2023-03-14T05:10:38;95543.47;;;1.65;100.00
4617;BME280;2321;42.704;23.384;2023-03-14T05:13:05;95538.34;;;1.63;100.00
4617;BME280;2321;42.704;23.384;2023-03-14T05:15:32;95532.97;;;1.65;100.00
4617;BME280;2321;42.704;23.384;2023-03-14T05:18:00;95538.66;;;1.70;100.00
4617;BME280;2321;42.704;23.384;2023-03-14T05:20:27;95538.53;;;1.71;100.00
4617;BME280;2321;42.704;23.384;2023-03-14T05:22:54;95527.75;;;1.74;100.00
4617;BME280;2321;42.704;23.384;2023-03-14T05:25:21;95535.22;;;1.79;100.00
4617;BME280;2321;42.704;23.384;2023-03-14T05:27:48;95525.97;;;1.85;100.00
4617;BME280;2321;42.704;23.384;2023-03-14T05:30:15;95525.31;;;2.03;100.00
4617;BME280;2321;42.704;23.384;2023-03-14T05:32:42;95530.19;;;2.08;100.00
4617;BME280;2321;42.704;23.384;2023-03-14T05:35:10;95530.91;;;2.20;99.92
4617;BME280;2321;42.704;23.384;2023-03-14T05:37:37;95526.63;;;2.28;99.35
4617;BME280;2321;42.704;23.384;2023-03-14T05:40:05;95526.47;;;2.30;100.00
4617;BME280;2321;42.704;23.384;2023-03-14T05:42:32;95530.63;;;2.33;100.00
4617;BME280;2321;42.704;23.384;2023-03-14T05:44:59;95533.13;;;2.34;100.00
4617;BME280;2321;42.704;23.384;2023-03-14T05:47:26;95535.34;;;2.49;100.00
4617;BME280;2321;42.704;23.384;2023-03-14T05:49:53;95525.66;;;2.59;100.00
4617;BME280;2321;42.704;23.384;2023-03-14T05:52:21;95522.19;;;2.69;100.00
4617;BME280;2321;42.704;23.384;2023-03-14T05:54:48;95532.72;;;2.79;100.00
4617;BME280;2321;42.704;23.384;2023-03-14T05:57:15;95530.19;;;2.97;99.58
4617;BME280;2321;42.704;23.384;2023-03-14T05:59:42;95534.91;;;3.03;97.88
4617;BME280;2321;42.704;23.384;2023-03-14T06:02:09;95516.44;;;3.13;95.79
4617;BME280;2321;42.704;23.384;2023-03-14T06:04:36;95527.91;;;3.22;94.61
4617;BME280;2321;42.704;23.384;2023-03-14T06:07:03;95528.31;;;3.28;94.47
4617;BME280;2321;42.704;23.384;2023-03-14T06:09:31;95530.22;;;3.35;94.05
4617;BME280;2321;42.704;23.384;2023-03-14T06:11:58;95528.56;;;3.34;95.68
4617;BME280;2321;42.704;23.384;2023-03-14T06:14:25;95530.59;;;3.51;96.11
4617;BME280;2321;42.704;23.384;2023-03-14T06:16:51;95521.41;;;3.65;94.93
4617;BME280;2321;42.704;23.384;2023-03-14T06:19:19;95522.34;;;3.74;92.67
4617;BME280;2321;42.704;23.384;2023-03-14T06:21:46;95516.03;;;3.85;91.03
4617;BME280;2321;42.704;23.384;2023-03-14T06:24:13;95522.56;;;3.80;90.38
4617;BME280;2321;42.704;23.384;2023-03-14T06:26:41;95528.28;;;4.04;88.24
4617;BME280;2321;42.704;23.384;2023-03-14T06:29:08;95533.16;;;4.17;86.20
4617;BME280;2321;42.704;23.384;2023-03-14T06:31:35;95530.53;;;4.17;82.47
4617;BME280;2321;42.704;23.384;2023-03-14T06:34:02;95529.72;;;4.17;81.37
4617;BME280;2321;42.704;23.384;2023-03-14T06:36:29;95524.22;;;4.10;82.01
4617;BME280;2321;42.704;23.384;2023-03-14T06:38:56;95532.38;;;4.17;83.04
4617;BME280;2321;42.704;23.384;2023-03-14T06:41:23;95530.88;;;4.32;80.09
4617;BME280;2321;42.704;23.384;2023-03-14T06:43:52;95521.38;;;4.40;81.03
4617;BME280;2321;42.704;23.384;2023-03-14T06:46:19;95527.13;;;4.53;81.53
4617;BME280;2321;42.704;23.384;2023-03-14T06:48:46;95518.34;;;4.71;78.26
4617;BME280;2321;42.704;23.384;2023-03-14T06:51:13;95522.66;;;4.72;77.98
4617;BME280;2321;42.704;23.384;2023-03-14T06:53:40;95513.38;;;4.86;79.48
4617;BME280;2321;42.704;23.384;2023-03-14T06:56:08;95504.66;;;4.94;76.90
4617;BME280;2321;42.704;23.384;2023-03-14T06:58:34;95509.41;;;5.09;74.18
4617;BME280;2321;42.704;23.384;2023-03-14T07:01:03;95503.06;;;5.28;73.68
4617;BME280;2321;42.704;23.384;2023-03-14T07:03:32;95507.41;;;5.38;70.61
4617;BME280;2321;42.704;23.384;2023-03-14T07:05:59;95496.94;;;5.54;71.90
4617;BME280;2321;42.704;23.384;2023-03-14T07:08:26;95486.25;;;5.64;70.13
4617;BME280;2321;42.704;23.384;2023-03-14T07:10:52;95495.72;;;5.84;70.57
4617;BME280;2321;42.704;23.384;2023-03-14T07:13:22;95493.09;;;5.92;70.82
4617;BME280;2321;42.704;23.384;2023-03-14T07:15:49;95486.84;;;6.02;69.68
4617;BME280;2321;42.704;23.384;2023-03-14T07:18:17;95480.41;;;6.04;64.60
4617;BME280;2321;42.704;23.384;2023-03-14T07:20:45;95486.28;;;6.16;63.07
4617;BME280;2321;42.704;23.384;2023-03-14T07:23:12;95493.06;;;6.27;62.76
4617;BME280;2321;42.704;23.384;2023-03-14T07:25:38;95494.56;;;6.38;61.07
4617;BME280;2321;42.704;23.384;2023-03-14T07:28:06;95478.72;;;6.47;60.40
4617;BME280;2321;42.704;23.384;2023-03-14T07:30:33;95485.81;;;6.63;59.80
4617;BME280;2321;42.704;23.384;2023-03-14T07:33:00;95481.84;;;6.75;58.06
4617;BME280;2321;42.704;23.384;2023-03-14T07:35:28;95475.41;;;6.78;58.19
4617;BME280;2321;42.704;23.384;2023-03-14T07:37:55;95474.25;;;6.89;59.22
4617;BME280;2321;42.704;23.384;2023-03-14T07:40:25;95483.19;;;7.05;57.85
4617;BME280;2321;42.704;23.384;2023-03-14T07:42:52;95470.75;;;7.14;57.31
4617;BME280;2321;42.704;23.384;2023-03-14T07:45:20;95460.47;;;7.19;56.62
4617;BME280;2321;42.704;23.384;2023-03-14T07:47:47;95464.91;;;7.27;55.79
4617;BME280;2321;42.704;23.384;2023-03-14T07:50:15;95467.88;;;7.32;55.71
4617;BME280;2321;42.704;23.384;2023-03-14T07:52:43;95462.56;;;7.40;55.57
4617;BME280;2321;42.704;23.384;2023-03-14T07:55:10;95455.75;;;7.46;56.09
4617;BME280;2321;42.704;23.384;2023-03-14T07:57:39;95457.56;;;7.54;55.74
4617;BME280;2321;42.704;23.384;2023-03-14T08:00:07;95451.34;;;7.70;55.81
4617;BME280;2321;42.704;23.384;2023-03-14T08:02:35;95460.75;;;7.81;54.87
4617;BME280;2321;42.704;23.384;2023-03-14T08:05:02;95453.63;;;7.82;56.09
4617;BME280;2321;42.704;23.384;2023-03-14T08:07:29;95449.91;;;7.91;54.51
4617;BME280;2321;42.704;23.384;2023-03-14T08:09:58;95450.41;;;7.95;54.72
4617;BME280;2321;42.704;23.384;2023-03-14T08:12:24;95451.31;;;8.11;55.35
4617;BME280;2321;42.704;23.384;2023-03-14T08:14:51;95448.72;;;8.26;55.35
4617;BME280;2321;42.704;23.384;2023-03-14T08:17:18;95444.84;;;8.37;55.02
4617;BME280;2321;42.704;23.384;2023-03-14T08:19:45;95447.16;;;8.40;52.26
4617;BME280;2321;42.704;23.384;2023-03-14T08:22:12;95444.91;;;8.52;52.79
4617;BME280;2321;42.704;23.384;2023-03-14T08:24:39;95446.16;;;8.65;52.53
4617;BME280;2321;42.704;23.384;2023-03-14T08:27:07;95449.56;;;8.74;52.81
4617;BME280;2321;42.704;23.384;2023-03-14T08:29:34;95442.84;;;8.86;52.12
4617;BME280;2321;42.704;23.384;2023-03-14T08:32:01;95442.19;;;8.99;52.23
4617;BME280;2321;42.704;23.384;2023-03-14T08:34:28;95432.50;;;9.07;50.76
4617;BME280;2321;42.704;23.384;2023-03-14T08:36:55;95426.94;;;9.17;50.63
4617;BME280;2321;42.704;23.384;2023-03-14T08:39:22;95431.31;;;9.24;50.25
4617;BME280;2321;42.704;23.384;2023-03-14T08:41:49;95425.44;;;9.29;49.96
4617;BME280;2321;42.704;23.384;2023-03-14T08:44:22;95425.06;;;9.32;49.05
4617;BME280;2321;42.704;23.384;2023-03-14T08:46:52;95423.34;;;9.40;50.08
4617;BME280;2321;42.704;23.384;2023-03-14T08:49:19;95419.22;;;9.52;50.04
4617;BME280;2321;42.704;23.384;2023-03-14T08:51:47;95402.16;;;9.62;48.40
4617;BME280;2321;42.704;23.384;2023-03-14T08:54:14;95409.28;;;9.76;49.99
4617;BME280;2321;42.704;23.384;2023-03-14T08:56:41;95406.50;;;9.85;47.79
4617;BME280;2321;42.704;23.384;2023-03-14T08:59:08;95397.03;;;9.97;47.90
4617;BME280;2321;42.704;23.384;2023-03-14T09:01:37;95389.13;;;10.04;45.91
4617;BME280;2321;42.704;23.384;2023-03-14T09:04:04;95391.66;;;10.12;46.24
4617;BME280;2321;42.704;23.384;2023-03-14T09:06:32;95376.00;;;10.24;47.12
4617;BME280;2321;42.704;23.384;2023-03-14T09:08:59;95373.03;;;10.34;46.92
4617;BME280;2321;42.704;23.384;2023-03-14T09:11:26;95371.50;;;10.47;46.36
4617;BME280;2321;42.704;23.384;2023-03-14T09:13:53;95369.28;;;10.51;45.72
4617;BME280;2321;42.704;23.384;2023-03-14T09:16:20;95370.56;;;10.55;46.32
4617;BME280;2321;42.704;23.384;2023-03-14T09:18:48;95357.34;;;10.68;46.89
4617;BME280;2321;42.704;23.384;2023-03-14T09:21:15;95347.19;;;10.79;45.94
4617;BME280;2321;42.704;23.384;2023-03-14T09:23:42;95352.34;;;10.87;45.21
4617;BME280;2321;42.704;23.384;2023-03-14T09:26:11;95340.97;;;11.00;46.14
4617;BME280;2321;42.704;23.384;2023-03-14T09:28:38;95342.25;;;11.11;44.57
4617;BME280;2321;42.704;23.384;2023-03-14T09:31:06;95337.75;;;11.12;44.51
4617;BME280;2321;42.704;23.384;2023-03-14T09:33:34;95330.41;;;11.21;45.63
4617;BME280;2321;42.704;23.384;2023-03-14T09:36:02;95329.25;;;11.37;46.85
4617;BME280;2321;42.704;23.384;2023-03-14T09:38:30;95320.47;;;11.50;45.19
4617;BME280;2321;42.704;23.384;2023-03-14T09:41:00;95322.78;;;11.67;44.70
4617;BME280;2321;42.704;23.384;2023-03-14T09:43:29;95309.69;;;11.79;44.54
4617;BME280;2321;42.704;23.384;2023-03-14T09:45:58;95307.66;;;11.88;45.78
4617;BME280;2321;42.704;23.384;2023-03-14T09:48:31;95300.09;;;11.98;43.92
4617;BME280;2321;42.704;23.384;2023-03-14T09:51:01;95294.94;;;12.04;44.21
4617;BME280;2321;42.704;23.384;2023-03-14T09:53:37;95288.78;;;12.10;44.80
4617;BME280;2321;42.704;23.384;2023-03-14T09:56:11;95286.56;;;12.20;43.44
4617;BME280;2321;42.704;23.384;2023-03-14T09:58:40;95276.91;;;12.19;44.50
4617;BME280;2321;42.704;23.384;2023-03-14T10:01:09;95275.06;;;12.27;44.20
4617;BME280;2321;42.704;23.384;2023-03-14T10:03:37;95273.84;;;12.29;44.12
4617;BME280;2321;42.704;23.384;2023-03-14T10:06:11;95262.34;;;12.36;44.73
4617;BME280;2321;42.704;23.384;2023-03-14T10:08:40;95256.56;;;12.52;45.22
4617;BME280;2321;42.704;23.384;2023-03-14T10:11:14;95254.88;;;12.72;45.34
4617;BME280;2321;42.704;23.384;2023-03-14T10:13:50;95247.22;;;12.89;43.96
4617;BME280;2321;42.704;23.384;2023-03-14T10:16:29;95245.75;;;13.00;42.81
4617;BME280;2321;42.704;23.384;2023-03-14T10:19:02;95244.09;;;13.06;41.54
4617;BME280;2321;42.704;23.384;2023-03-14T10:21:30;95241.59;;;13.11;43.05
4617;BME280;2321;42.704;23.384;2023-03-14T10:24:09;95230.22;;;13.23;43.81
4617;BME280;2321;42.704;23.384;2023-03-14T10:26:37;95218.69;;;13.29;43.09
4617;BME280;2321;42.704;23.384;2023-03-14T10:29:10;95207.31;;;13.40;42.62
4617;BME280;2321;42.704;23.384;2023-03-14T10:31:50;95206.00;;;13.50;42.30
4617;BME280;2321;42.704;23.384;2023-03-14T10:34:21;95198.16;;;13.62;43.24
4617;BME280;2321;42.704;23.384;2023-03-14T10:36:52;95188.81;;;13.71;41.50
4617;BME280;2321;42.704;23.384;2023-03-14T10:39:46;95185.44;;;13.83;41.91
4617;BME280;2321;42.704;23.384;2023-03-14T10:42:18;95177.75;;;13.93;41.13
4617;BME280;2321;42.704;23.384;2023-03-14T10:44:51;95168.78;;;14.07;40.71
4617;BME280;2321;42.704;23.384;2023-03-14T10:47:23;95165.53;;;14.23;41.94
4617;BME280;2321;42.704;23.384;2023-03-14T10:49:51;95148.50;;;14.36;41.39
4617;BME280;2321;42.704;23.384;2023-03-14T10:52:21;95141.97;;;14.51;41.55
4617;BME280;2321;42.704;23.384;2023-03-14T10:54:55;95110.72;;;14.45;40.52
4617;BME280;2321;42.704;23.384;2023-03-14T10:57:24;95122.69;;;14.61;39.95
4617;BME280;2321;42.704;23.384;2023-03-14T10:59:52;95128.69;;;14.75;41.66
4617;BME280;2321;42.704;23.384;2023-03-14T11:02:39;95111.22;;;14.91;41.64
4617;BME280;2321;42.704;23.384;2023-03-14T11:05:24;95113.06;;;14.91;38.72
4617;BME280;2321;42.704;23.384;2023-03-14T11:07:55;95109.97;;;14.87;38.47
4617;BME280;2321;42.704;23.384;2023-03-14T11:10:31;95105.63;;;14.74;38.77
4617;BME280;2321;42.704;23.384;2023-03-14T11:13:08;95087.59;;;14.81;39.90
4617;BME280;2321;42.704;23.384;2023-03-14T11:15:42;95087.47;;;14.95;39.31
4617;BME280;2321;42.704;23.384;2023-03-14T11:18:30;95082.59;;;15.04;36.91
4617;BME280;2321;42.704;23.384;2023-03-14T11:21:07;95073.97;;;15.02;37.88
4617;BME280;2321;42.704;23.384;2023-03-14T11:23:41;95062.09;;;15.10;37.96
4617;BME280;2321;42.704;23.384;2023-03-14T11:26:20;95052.66;;;15.19;38.38
4617;BME280;2321;42.704;23.384;2023-03-14T11:28:57;95036.50;;;15.38;38.95
4617;BME280;2321;42.704;23.384;2023-03-14T11:31:26;95038.25;;;15.56;37.35
4617;BME280;2321;42.704;23.384;2023-03-14T11:33:56;95031.59;;;15.71;36.53
4617;BME280;2321;42.704;23.384;2023-03-14T11:36:30;95023.88;;;15.87;37.20
4617;BME280;2321;42.704;23.384;2023-03-14T11:38:58;95020.47;;;15.92;35.37
4617;BME280;2321;42.704;23.384;2023-03-14T11:41:31;95015.47;;;16.07;35.40
4617;BME280;2321;42.704;23.384;2023-03-14T11:44:03;95015.13;;;16.16;35.75
4617;BME280;2321;42.704;23.384;2023-03-14T11:46:38;95006.44;;;16.26;35.98
4617;BME280;2321;42.704;23.384;2023-03-14T11:49:13;94999.75;;;16.40;35.07
4617;BME280;2321;42.704;23.384;2023-03-14T11:51:44;94996.19;;;16.52;35.06
4617;BME280;2321;42.704;23.384;2023-03-14T11:54:16;94982.22;;;16.67;34.81
4617;BME280;2321;42.704;23.384;2023-03-14T11:56:51;94981.59;;;16.77;33.54
4617;BME280;2321;42.704;23.384;2023-03-14T11:59:26;94978.91;;;16.94;33.63
4617;BME280;2321;42.704;23.384;2023-03-14T12:01:57;94975.44;;;17.11;33.98
4617;BME280;2321;42.704;23.384;2023-03-14T12:04:39;94966.56;;;17.28;33.57
4617;BME280;2321;42.704;23.384;2023-03-14T12:07:13;94968.00;;;17.36;33.27
4617;BME280;2321;42.704;23.384;2023-03-14T12:09:44;94948.53;;;17.46;33.41
4617;BME280;2321;42.704;23.384;2023-03-14T12:12:17;94953.19;;;17.50;32.11
4617;BME280;2321;42.704;23.384;2023-03-14T12:14:46;94945.59;;;17.47;32.73
4617;BME280;2321;42.704;23.384;2023-03-14T12:17:20;94938.09;;;17.49;33.34
4617;BME280;2321;42.704;23.384;2023-03-14T12:19:48;94933.03;;;17.53;33.32
4617;BME280;2321;42.704;23.384;2023-03-14T12:22:27;94928.13;;;17.50;32.24
4617;BME280;2321;42.704;23.384;2023-03-14T12:24:59;94924.31;;;17.46;32.02
4617;BME280;2321;42.704;23.384;2023-03-14T12:30:33;94911.56;;;17.58;32.48
4617;BME280;2321;42.704;23.384;2023-03-14T12:33:21;94907.38;;;17.68;32.85
4617;BME280;2321;42.704;23.384;2023-03-14T12:35:57;94909.13;;;17.79;32.38
4617;BME280;2321;42.704;23.384;2023-03-14T12:38:32;94897.94;;;17.88;32.13
4617;BME280;2321;42.704;23.384;2023-03-14T12:41:14;94900.16;;;17.96;33.00
4617;BME280;2321;42.704;23.384;2023-03-14T12:43:41;94890.63;;;18.11;33.19
4617;BME280;2321;42.704;23.384;2023-03-14T12:46:19;94887.22;;;18.21;32.35
4617;BME280;2321;42.704;23.384;2023-03-14T12:48:49;94893.88;;;18.35;31.73
4617;BME280;2321;42.704;23.384;2023-03-14T12:51:18;94882.06;;;18.42;32.31
4617;BME280;2321;42.704;23.384;2023-03-14T12:54:10;94873.22;;;18.46;32.11
4617;BME280;2321;42.704;23.384;2023-03-14T12:56:50;94868.31;;;18.43;31.79
4617;BME280;2321;42.704;23.384;2023-03-14T12:59:30;94867.97;;;18.34;31.68
4617;BME280;2321;42.704;23.384;2023-03-14T13:02:02;94866.31;;;18.28;31.60
4617;BME280;2321;42.704;23.384;2023-03-14T13:04:33;94855.72;;;18.21;31.35
4617;BME280;2321;42.704;23.384;2023-03-14T13:07:01;94854.91;;;18.21;30.34
4617;BME280;2321;42.704;23.384;2023-03-14T13:09:45;94847.94;;;18.25;30.59
4617;BME280;2321;42.704;23.384;2023-03-14T13:12:18;94850.22;;;18.11;30.51
4617;BME280;2321;42.704;23.384;2023-03-14T13:14:47;94844.22;;;18.03;31.10
4617;BME280;2321;42.704;23.384;2023-03-14T13:17:21;94826.38;;;17.97;30.36
4617;BME280;2321;42.704;23.384;2023-03-14T13:19:50;94832.03;;;17.95;30.66
4617;BME280;2321;42.704;23.384;2023-03-14T13:22:22;94824.00;;;18.01;31.01
4617;BME280;2321;42.704;23.384;2023-03-14T13:24:50;94815.91;;;18.01;31.18
4617;BME280;2321;42.704;23.384;2023-03-14T13:27:19;94812.72;;;18.04;31.22
4617;BME280;2321;42.704;23.384;2023-03-14T13:29:50;94806.88;;;18.12;32.12
4617;BME280;2321;42.704;23.384;2023-03-14T13:32:20;94795.06;;;18.18;30.76
4617;BME280;2321;42.704;23.384;2023-03-14T13:34:48;94800.72;;;18.17;31.35